Terminal Aerodrome Forecast
Issued by NWS Albany, NY

Home | Current Version | Previous Version | Text Only | Print | Product List | Glossary On
Versions: 1 2 3 4 5 6 7 8 9 10 11 12 13 14 15
000
FTUS41 KALY 270500 RRA
TAFALB
TAF
KALB 270546Z 2706/2806 18005KT P6SM SCT250
     FM271000 19006KT P6SM SCT060 BKN250
     FM271500 18005KT P6SM SCT060 BKN120
     FM271800 27009KT P6SM VCSH BKN060
     FM272100 30010KT P6SM SCT060
     FM280100 31008KT P6SM SCT200=

USA.gov is the U.S. government's official web portal to all federal, state and local government web resources and services.